sensor_id;sensor_type;location;lat;lon;timestamp;pressure;altitude;pressure_sealevel;temperature;humidity
26192;BME280;13935;55.672;37.764;2023-02-15T03:56:41;100418.38;;;-0.81;100.00
26192;BME280;13935;55.672;37.764;2023-02-15T03:58:18;100425.84;;;-0.73;100.00
26192;BME280;13935;55.672;37.764;2023-02-15T03:59:42;100426.94;;;-0.87;100.00
26192;BME280;13935;55.672;37.764;2023-02-15T04:03:04;100427.31;;;-0.80;100.00
26192;BME280;13935;55.672;37.764;2023-02-15T04:04:19;100424.34;;;-0.79;100.00
26192;BME280;13935;55.672;37.764;2023-02-15T04:05:26;100429.75;;;-0.79;100.00
26192;BME280;13935;55.672;37.764;2023-02-15T04:06:31;100429.91;;;-0.89;100.00
26192;BME280;13935;55.672;37.764;2023-02-15T04:07:35;100437.28;;;-0.76;100.00
26192;BME280;13935;55.672;37.764;2023-02-15T04:08:40;100425.59;;;-0.90;100.00
26192;BME280;13935;55.672;37.764;2023-02-15T04:10:03;100433.66;;;-0.85;100.00
26192;BME280;13935;55.672;37.764;2023-02-15T04:11:25;100427.72;;;-0.87;100.00
26192;BME280;13935;55.672;37.764;2023-02-15T04:12:28;100432.16;;;-0.77;100.00
26192;BME280;13935;55.672;37.764;2023-02-15T04:13:32;100433.34;;;-0.97;100.00
26192;BME280;13935;55.672;37.764;2023-02-15T04:14:38;100440.34;;;-0.96;100.00
26192;BME280;13935;55.672;37.764;2023-02-15T04:16:00;100437.56;;;-0.91;100.00
26192;BME280;13935;55.672;37.764;2023-02-15T04:17:16;100436.22;;;-1.07;100.00
26192;BME280;13935;55.672;37.764;2023-02-15T11:52:36;100703.91;;;-0.74;100.00
26192;BME280;13935;55.672;37.764;2023-02-15T11:53:45;100706.63;;;-0.74;100.00
26192;BME280;13935;55.672;37.764;2023-02-15T11:54:51;100694.97;;;-0.74;99.79
26192;BME280;13935;55.672;37.764;2023-02-15T11:55:58;100707.72;;;-0.75;99.66
26192;BME280;13935;55.672;37.764;2023-02-15T11:57:15;100709.19;;;-0.64;98.42
26192;BME280;13935;55.672;37.764;2023-02-15T12:00:24;100711.69;;;-0.68;97.32
26192;BME280;13935;55.672;37.764;2023-02-15T12:01:39;100718.25;;;-0.69;95.83
26192;BME280;13935;55.672;37.764;2023-02-15T12:02:46;100712.13;;;-0.61;95.17
26192;BME280;13935;55.672;37.764;2023-02-15T12:04:15;100722.13;;;-0.56;94.66
26192;BME280;13935;55.672;37.764;2023-02-15T12:05:25;100712.81;;;-0.50;93.92
26192;BME280;13935;55.672;37.764;2023-02-15T16:18:53;100944.16;;;-1.66;100.00
26192;BME280;13935;55.672;37.764;2023-02-15T16:27:22;100947.94;;;-1.67;100.00
26192;BME280;13935;55.672;37.764;2023-02-15T16:34:07;100953.91;;;-1.70;100.00
26192;BME280;13935;55.672;37.764;2023-02-15T16:52:23;100950.03;;;-1.54;100.00
26192;BME280;13935;55.672;37.764;2023-02-15T19:00:53;100962.78;;;-1.17;100.00
26192;BME280;13935;55.672;37.764;2023-02-15T19:01:58;100963.97;;;-1.33;100.00
26192;BME280;13935;55.672;37.764;2023-02-15T19:03:02;100960.97;;;-1.26;100.00
26192;BME280;13935;55.672;37.764;2023-02-15T19:04:05;100968.59;;;-1.33;100.00
26192;BME280;13935;55.672;37.764;2023-02-15T19:05:08;100972.63;;;-1.26;100.00
26192;BME280;13935;55.672;37.764;2023-02-15T19:06:18;100972.88;;;-1.22;100.00
26192;BME280;13935;55.672;37.764;2023-02-15T19:07:25;100978.03;;;-1.26;100.00
26192;BME280;13935;55.672;37.764;2023-02-15T19:08:29;100976.53;;;-1.42;100.00
26192;BME280;13935;55.672;37.764;2023-02-15T19:09:32;100982.00;;;-1.46;100.00
26192;BME280;13935;55.672;37.764;2023-02-15T19:10:39;100973.81;;;-1.42;100.00
26192;BME280;13935;55.672;37.764;2023-02-15T19:11:57;100976.06;;;-1.53;100.00
26192;BME280;13935;55.672;37.764;2023-02-15T19:13:01;100965.28;;;-1.63;100.00
26192;BME280;13935;55.672;37.764;2023-02-15T19:14:05;100970.91;;;-1.55;100.00
26192;BME280;13935;55.672;37.764;2023-02-15T19:15:15;100972.63;;;-1.69;100.00
26192;BME280;13935;55.672;37.764;2023-02-15T19:16:33;100976.16;;;-1.68;100.00
26192;BME280;13935;55.672;37.764;2023-02-15T19:17:37;100970.19;;;-1.70;100.00
26192;BME280;13935;55.672;37.764;2023-02-15T19:18:41;100972.94;;;-1.75;100.00
26192;BME280;13935;55.672;37.764;2023-02-15T19:19:47;100977.56;;;-1.76;100.00
26192;BME280;13935;55.672;37.764;2023-02-15T19:20:54;100968.09;;;-1.78;100.00
26192;BME280;13935;55.672;37.764;2023-02-15T19:22:00;100967.75;;;-1.72;100.00
26192;BME280;13935;55.672;37.764;2023-02-15T19:23:10;100971.31;;;-1.76;100.00
26192;BME280;13935;55.672;37.764;2023-02-15T19:24:23;100975.13;;;-1.77;100.00
26192;BME280;13935;55.672;37.764;2023-02-15T19:25:33;100972.44;;;-1.87;100.00
26192;BME280;13935;55.672;37.764;2023-02-15T19:26:40;100981.09;;;-1.80;100.00
26192;BME280;13935;55.672;37.764;2023-02-15T19:27:49;100977.72;;;-1.57;100.00
26192;BME280;13935;55.672;37.764;2023-02-15T19:28:53;100978.84;;;-1.68;100.00
26192;BME280;13935;55.672;37.764;2023-02-15T19:30:00;100976.06;;;-1.53;100.00
26192;BME280;13935;55.672;37.764;2023-02-15T19:31:04;100971.72;;;-1.54;100.00
26192;BME280;13935;55.672;37.764;2023-02-15T19:32:10;100975.19;;;-1.44;100.00
26192;BME280;13935;55.672;37.764;2023-02-15T19:33:17;100973.06;;;-1.52;100.00
26192;BME280;13935;55.672;37.764;2023-02-15T19:34:26;100967.94;;;-1.53;100.00
26192;BME280;13935;55.672;37.764;2023-02-15T19:35:32;100974.81;;;-1.71;100.00
26192;BME280;13935;55.672;37.764;2023-02-15T19:36:45;100969.72;;;-1.77;100.00
26192;BME280;13935;55.672;37.764;2023-02-15T19:37:51;100969.69;;;-1.72;100.00
26192;BME280;13935;55.672;37.764;2023-02-15T19:38:57;100981.03;;;-1.65;100.00
26192;BME280;13935;55.672;37.764;2023-02-15T19:40:03;100973.28;;;-1.43;100.00
26192;BME280;13935;55.672;37.764;2023-02-15T19:41:08;100967.09;;;-1.54;100.00
26192;BME280;13935;55.672;37.764;2023-02-15T19:42:21;100964.44;;;-1.59;100.00
26192;BME280;13935;55.672;37.764;2023-02-15T19:43:25;100973.91;;;-1.56;100.00
26192;BME280;13935;55.672;37.764;2023-02-15T19:44:31;100971.81;;;-1.69;100.00
26192;BME280;13935;55.672;37.764;2023-02-15T19:45:37;100971.88;;;-1.79;100.00
26192;BME280;13935;55.672;37.764;2023-02-15T19:46:40;100969.47;;;-1.91;100.00
26192;BME280;13935;55.672;37.764;2023-02-15T19:47:44;100968.88;;;-1.78;100.00
26192;BME280;13935;55.672;37.764;2023-02-15T19:48:52;100971.25;;;-1.66;100.00
26192;BME280;13935;55.672;37.764;2023-02-15T19:49:55;100967.34;;;-1.50;100.00
26192;BME280;13935;55.672;37.764;2023-02-15T19:51:04;100969.03;;;-1.54;100.00
26192;BME280;13935;55.672;37.764;2023-02-15T19:52:16;100974.69;;;-1.51;100.00
26192;BME280;13935;55.672;37.764;2023-02-15T19:53:24;100965.59;;;-1.70;100.00
26192;BME280;13935;55.672;37.764;2023-02-15T19:54:33;100961.81;;;-1.79;100.00
26192;BME280;13935;55.672;37.764;2023-02-15T19:55:37;100963.16;;;-1.76;100.00
26192;BME280;13935;55.672;37.764;2023-02-15T19:56:43;100963.16;;;-1.76;100.00
26192;BME280;13935;55.672;37.764;2023-02-15T19:57:48;100970.44;;;-1.67;100.00
26192;BME280;13935;55.672;37.764;2023-02-15T19:58:52;100964.72;;;-1.60;100.00
26192;BME280;13935;55.672;37.764;2023-02-15T19:59:56;100966.84;;;-1.52;100.00
26192;BME280;13935;55.672;37.764;2023-02-15T20:01:01;100964.59;;;-1.41;100.00
26192;BME280;13935;55.672;37.764;2023-02-15T20:02:05;100961.75;;;-1.26;100.00
26192;BME280;13935;55.672;37.764;2023-02-15T20:03:09;100968.41;;;-1.42;100.00
26192;BME280;13935;55.672;37.764;2023-02-15T20:04:13;100964.53;;;-1.31;100.00
26192;BME280;13935;55.672;37.764;2023-02-15T20:05:16;100969.28;;;-1.51;100.00
26192;BME280;13935;55.672;37.764;2023-02-15T20:06:20;100969.31;;;-1.56;100.00
26192;BME280;13935;55.672;37.764;2023-02-15T20:07:26;100972.31;;;-1.62;100.00
26192;BME280;13935;55.672;37.764;2023-02-15T20:08:31;100972.13;;;-1.76;100.00
26192;BME280;13935;55.672;37.764;2023-02-15T20:09:40;100971.25;;;-1.66;100.00
26192;BME280;13935;55.672;37.764;2023-02-15T20:10:43;100966.97;;;-1.72;100.00
26192;BME280;13935;55.672;37.764;2023-02-15T20:11:47;100965.84;;;-1.66;100.00
26192;BME280;13935;55.672;37.764;2023-02-15T20:12:51;100968.25;;;-1.65;100.00
26192;BME280;13935;55.672;37.764;2023-02-15T20:13:57;100977.19;;;-1.59;100.00
26192;BME280;13935;55.672;37.764;2023-02-15T20:15:04;100975.19;;;-1.44;100.00
26192;BME280;13935;55.672;37.764;2023-02-15T20:16:19;100974.38;;;-1.44;100.00
26192;BME280;13935;55.672;37.764;2023-02-15T20:17:25;100967.97;;;-1.58;100.00
26192;BME280;13935;55.672;37.764;2023-02-15T20:18:29;100963.66;;;-1.64;100.00
26192;BME280;13935;55.672;37.764;2023-02-15T20:19:33;100969.31;;;-1.61;100.00
26192;BME280;13935;55.672;37.764;2023-02-15T20:20:41;100977.13;;;-1.49;100.00
26192;BME280;13935;55.672;37.764;2023-02-15T20:21:46;100971.19;;;-1.56;100.00
26192;BME280;13935;55.672;37.764;2023-02-15T20:22:59;100976.13;;;-1.63;100.00
26192;BME280;13935;55.672;37.764;2023-02-15T20:24:03;100977.56;;;-1.76;100.00
26192;BME280;13935;55.672;37.764;2023-02-15T20:25:28;100973.50;;;-1.78;100.00
26192;BME280;13935;55.672;37.764;2023-02-15T20:26:34;100970.19;;;-1.70;100.00
26192;BME280;13935;55.672;37.764;2023-02-15T20:27:37;100967.56;;;-1.85;100.00
26192;BME280;13935;55.672;37.764;2023-02-15T20:28:46;100967.06;;;-1.92;100.00
26192;BME280;13935;55.672;37.764;2023-02-15T20:29:50;100969.41;;;-1.76;100.00
26192;BME280;13935;55.672;37.764;2023-02-15T20:30:56;100968.88;;;-1.78;100.00
26192;BME280;13935;55.672;37.764;2023-02-15T20:32:00;100967.50;;;-1.75;100.00
26192;BME280;13935;55.672;37.764;2023-02-15T20:33:05;100968.38;;;-1.85;100.00
26192;BME280;13935;55.672;37.764;2023-02-15T20:34:08;100970.25;;;-1.80;100.00
26192;BME280;13935;55.672;37.764;2023-02-15T20:35:16;100969.09;;;-1.69;100.00
26192;BME280;13935;55.672;37.764;2023-02-15T20:36:20;100975.06;;;-1.67;100.00
26192;BME280;13935;55.672;37.764;2023-02-15T20:37:26;100965.34;;;-1.73;100.00
26192;BME280;13935;55.672;37.764;2023-02-15T20:38:31;100969.72;;;-1.82;100.00
26192;BME280;13935;55.672;37.764;2023-02-15T20:39:35;100964.78;;;-1.75;100.00
26192;BME280;13935;55.672;37.764;2023-02-15T20:40:38;100972.69;;;-1.79;100.00
26192;BME280;13935;55.672;37.764;2023-02-15T20:42:01;100970.25;;;-1.80;100.00
26192;BME280;13935;55.672;37.764;2023-02-15T20:43:09;100972.38;;;-1.72;100.00
26192;BME280;13935;55.672;37.764;2023-02-15T20:44:22;100981.09;;;-1.80;100.00
26192;BME280;13935;55.672;37.764;2023-02-15T20:45:31;100975.59;;;-1.70;100.00
26192;BME280;13935;55.672;37.764;2023-02-15T20:46:35;100975.56;;;-1.60;100.00
26192;BME280;13935;55.672;37.764;2023-02-15T20:47:38;100970.09;;;-1.55;100.00
26192;BME280;13935;55.672;37.764;2023-02-15T20:48:45;100966.38;;;-1.64;100.00
26192;BME280;13935;55.672;37.764;2023-02-15T20:49:48;100977.75;;;-1.62;100.00
26192;BME280;13935;55.672;37.764;2023-02-15T20:50:52;100969.03;;;-1.54;100.00
26192;BME280;13935;55.672;37.764;2023-02-15T20:51:57;100970.06;;;-1.50;100.00
26192;BME280;13935;55.672;37.764;2023-02-15T20:53:04;100970.28;;;-1.37;100.00
26192;BME280;13935;55.672;37.764;2023-02-15T20:54:16;100966.19;;;-1.35;100.00
26192;BME280;13935;55.672;37.764;2023-02-15T20:55:28;100971.69;;;-1.49;100.00
26192;BME280;13935;55.672;37.764;2023-02-15T20:56:32;100971.88;;;-1.79;100.00
26192;BME280;13935;55.672;37.764;2023-02-15T20:57:38;100969.63;;;-1.67;100.00
26192;BME280;13935;55.672;37.764;2023-02-15T20:58:42;100961.50;;;-1.67;100.00
26192;BME280;13935;55.672;37.764;2023-02-15T20:59:45;100965.38;;;-1.78;100.00
26192;BME280;13935;55.672;37.764;2023-02-15T21:00:50;100966.53;;;-1.89;100.00
26192;BME280;13935;55.672;37.764;2023-02-15T21:01:57;100967.06;;;-1.92;100.00
26192;BME280;13935;55.672;37.764;2023-02-15T21:03:00;100965.13;;;-1.82;100.00
26192;BME280;13935;55.672;37.764;2023-02-15T21:04:08;100975.16;;;-1.87;100.00
26192;BME280;13935;55.672;37.764;2023-02-15T21:05:22;100970.31;;;-1.95;100.00
26192;BME280;13935;55.672;37.764;2023-02-15T21:06:26;100970.31;;;-1.95;100.00
26192;BME280;13935;55.672;37.764;2023-02-15T21:07:31;100964.31;;;-1.87;100.00
26192;BME280;13935;55.672;37.764;2023-02-15T21:08:35;100968.09;;;-1.88;100.00
26192;BME280;13935;55.672;37.764;2023-02-15T21:09:38;100971.44;;;-1.96;100.00
26192;BME280;13935;55.672;37.764;2023-02-15T21:10:41;100959.50;;;-2.00;100.00
26192;BME280;13935;55.672;37.764;2023-02-15T21:11:47;100959.50;;;-2.00;100.00
26192;BME280;13935;55.672;37.764;2023-02-15T21:12:52;100968.38;;;-1.85;100.00
26192;BME280;13935;55.672;37.764;2023-02-15T21:13:58;100968.66;;;-1.86;100.00
26192;BME280;13935;55.672;37.764;2023-02-15T21:15:01;100968.69;;;-1.91;100.00
26192;BME280;13935;55.672;37.764;2023-02-15T21:16:04;100976.84;;;-2.01;100.00
26192;BME280;13935;55.672;37.764;2023-02-15T21:17:13;100966.53;;;-1.99;100.00
26192;BME280;13935;55.672;37.764;2023-02-15T21:18:30;100965.75;;;-2.00;100.00
26192;BME280;13935;55.672;37.764;2023-02-15T21:19:34;100963.28;;;-2.01;100.00
26192;BME280;13935;55.672;37.764;2023-02-15T21:20:47;100962.22;;;-2.05;100.00
26192;BME280;13935;55.672;37.764;2023-02-15T21:21:52;100970.94;;;-2.13;100.00
26192;BME280;13935;55.672;37.764;2023-02-15T21:23:00;100968.75;;;-2.11;100.00
26192;BME280;13935;55.672;37.764;2023-02-15T21:24:05;100963.91;;;-2.14;100.00
26192;BME280;13935;55.672;37.764;2023-02-15T21:25:13;100970.66;;;-2.07;100.00
26192;BME280;13935;55.672;37.764;2023-02-15T21:26:20;100972.56;;;-2.12;100.00
26192;BME280;13935;55.672;37.764;2023-02-15T21:27:24;100970.66;;;-2.07;100.00
26192;BME280;13935;55.672;37.764;2023-02-15T21:28:28;100971.44;;;-2.06;100.00
26192;BME280;13935;55.672;37.764;2023-02-15T21:29:32;100972.56;;;-2.17;100.00
26192;BME280;13935;55.672;37.764;2023-02-15T21:30:35;100970.66;;;-2.16;100.00
26192;BME280;13935;55.672;37.764;2023-02-15T21:31:42;100962.28;;;-2.15;100.00
26192;BME280;13935;55.672;37.764;2023-02-15T21:32:49;100971.78;;;-2.17;100.00
26192;BME280;13935;55.672;37.764;2023-02-15T21:33:52;100977.38;;;-1.99;100.00
26192;BME280;13935;55.672;37.764;2023-02-15T21:34:56;100975.28;;;-2.17;100.00
26192;BME280;13935;55.672;37.764;2023-02-15T21:36:02;100975.25;;;-2.12;100.00
26192;BME280;13935;55.672;37.764;2023-02-15T21:37:25;100975.03;;;-2.20;100.00
26192;BME280;13935;55.672;37.764;2023-02-15T21:38:29;100974.69;;;-2.04;100.00
26192;BME280;13935;55.672;37.764;2023-02-15T21:39:34;100975.25;;;-2.12;100.00
26192;BME280;13935;55.672;37.764;2023-02-15T21:40:39;100975.25;;;-2.12;100.00
26192;BME280;13935;55.672;37.764;2023-02-15T21:41:45;100976.34;;;-2.13;100.00
26192;BME280;13935;55.672;37.764;2023-02-15T21:43:21;100972.28;;;-2.06;100.00
26192;BME280;13935;55.672;37.764;2023-02-15T21:44:43;100969.81;;;-2.02;100.00
26192;BME280;13935;55.672;37.764;2023-02-15T21:46:15;100970.94;;;-2.08;100.00
26192;BME280;13935;55.672;37.764;2023-02-15T21:47:37;100976.31;;;-2.03;100.00
26192;BME280;13935;55.672;37.764;2023-02-15T21:48:51;100977.47;;;-2.24;100.00
26192;BME280;13935;55.672;37.764;2023-02-15T21:49:57;100974.75;;;-2.19;100.00
26192;BME280;13935;55.672;37.764;2023-02-15T21:51:22;100974.22;;;-2.16;100.00
26192;BME280;13935;55.672;37.764;2023-02-15T21:52:43;100972.00;;;-2.09;100.00
26192;BME280;13935;55.672;37.764;2023-02-15T21:53:49;100972.00;;;-2.09;100.00
26192;BME280;13935;55.672;37.764;2023-02-15T21:54:53;100981.81;;;-2.23;100.00
26192;BME280;13935;55.672;37.764;2023-02-15T21:55:58;100981.25;;;-2.20;100.00
26192;BME280;13935;55.672;37.764;2023-02-15T21:57:02;100977.69;;;-2.06;100.00
26192;BME280;13935;55.672;37.764;2023-02-15T21:58:14;100973.97;;;-2.24;100.00
26192;BME280;13935;55.672;37.764;2023-02-15T21:59:18;100965.56;;;-2.23;100.00
26192;BME280;13935;55.672;37.764;2023-02-15T22:00:23;100958.25;;;-2.17;100.00
26192;BME280;13935;55.672;37.764;2023-02-15T22:01:27;100960.06;;;-2.03;100.00
26192;BME280;13935;55.672;37.764;2023-02-15T22:02:42;100979.00;;;-1.98;100.00
26192;BME280;13935;55.672;37.764;2023-02-15T22:03:46;100970.56;;;-1.87;100.00
26192;BME280;13935;55.672;37.764;2023-02-15T22:04:49;100964.34;;;-1.92;100.00
26192;BME280;13935;55.672;37.764;2023-02-15T22:05:53;100964.63;;;-1.94;100.00
26192;BME280;13935;55.672;37.764;2023-02-15T22:06:56;100967.25;;;-1.79;100.00
26192;BME280;13935;55.672;37.764;2023-02-15T22:08:00;100963.22;;;-1.86;100.00
26192;BME280;13935;55.672;37.764;2023-02-15T22:09:17;100966.72;;;-1.76;100.00
26192;BME280;13935;55.672;37.764;2023-02-15T22:10:20;100966.53;;;-1.99;100.00
26192;BME280;13935;55.672;37.764;2023-02-15T22:11:24;100964.44;;;-2.12;100.00
26192;BME280;13935;55.672;37.764;2023-02-15T22:12:26;100968.97;;;-1.98;100.00
26192;BME280;13935;55.672;37.764;2023-02-15T22:13:32;100970.94;;;-2.13;100.00
26192;BME280;13935;55.672;37.764;2023-02-15T22:14:37;100967.66;;;-2.05;100.00
26192;BME280;13935;55.672;37.764;2023-02-15T22:15:44;100961.97;;;-2.09;100.00
26192;BME280;13935;55.672;37.764;2023-02-15T22:16:48;100973.63;;;-2.13;100.00
26192;BME280;13935;55.672;37.764;2023-02-15T22:17:51;100968.25;;;-2.18;100.00
26192;BME280;13935;55.672;37.764;2023-02-15T22:18:55;100964.41;;;-2.07;100.00
26192;BME280;13935;55.672;37.764;2023-02-15T22:19:59;100961.09;;;-1.94;100.00
26192;BME280;13935;55.672;37.764;2023-02-15T22:21:03;100960.06;;;-2.03;100.00
26192;BME280;13935;55.672;37.764;2023-02-15T22:22:06;100974.69;;;-2.04;100.00
26192;BME280;13935;55.672;37.764;2023-02-15T22:23:08;100964.88;;;-1.95;100.00
26192;BME280;13935;55.672;37.764;2023-02-15T22:24:11;100968.09;;;-1.88;100.00
26192;BME280;13935;55.672;37.764;2023-02-15T22:25:21;100958.94;;;-1.97;100.00
26192;BME280;13935;55.672;37.764;2023-02-15T22:26:25;100961.91;;;-1.89;100.00
26192;BME280;13935;55.672;37.764;2023-02-15T22:27:38;100970.75;;;-1.73;100.00
26192;BME280;13935;55.672;37.764;2023-02-15T22:28:42;100966.19;;;-1.83;100.00
26192;BME280;13935;55.672;37.764;2023-02-15T22:29:45;100970.50;;;-1.77;100.00
26192;BME280;13935;55.672;37.764;2023-02-15T22:30:47;100966.97;;;-1.72;100.00
26192;BME280;13935;55.672;37.764;2023-02-15T22:31:50;100959.78;;;-2.02;100.00
26192;BME280;13935;55.672;37.764;2023-02-15T22:32:56;100970.56;;;-1.92;100.00
26192;BME280;13935;55.672;37.764;2023-02-15T22:33:59;100967.06;;;-1.92;100.00
26192;BME280;13935;55.672;37.764;2023-02-15T22:35:03;100967.25;;;-1.79;100.00
26192;BME280;13935;55.672;37.764;2023-02-15T22:36:32;100968.97;;;-1.98;100.00
26192;BME280;13935;55.672;37.764;2023-02-15T22:37:34;100974.66;;;-1.94;100.00
26192;BME280;13935;55.672;37.764;2023-02-15T22:38:37;100971.44;;;-2.06;100.00
26192;BME280;13935;55.672;37.764;2023-02-15T22:39:41;100967.56;;;-1.85;100.00
26192;BME280;13935;55.672;37.764;2023-02-15T22:40:45;100977.09;;;-1.98;100.00
26192;BME280;13935;55.672;37.764;2023-02-15T22:41:50;100964.88;;;-1.95;100.00
26192;BME280;13935;55.672;37.764;2023-02-15T22:42:54;100966.06;;;-2.11;100.00
26192;BME280;13935;55.672;37.764;2023-02-15T22:44:01;100962.22;;;-2.05;100.00
26192;BME280;13935;55.672;37.764;2023-02-15T22:45:04;100966.81;;;-2.01;100.00
26192;BME280;13935;55.672;37.764;2023-02-15T22:46:19;100966.25;;;-1.93;100.00
26192;BME280;13935;55.672;37.764;2023-02-15T22:47:25;100964.81;;;-1.80;100.00
26192;BME280;13935;55.672;37.764;2023-02-15T22:48:28;100962.19;;;-1.95;100.00
26192;BME280;13935;55.672;37.764;2023-02-15T22:49:31;100973.63;;;-2.08;100.00
26192;BME280;13935;55.672;37.764;2023-02-15T22:50:34;100971.78;;;-2.17;100.00
26192;BME280;13935;55.672;37.764;2023-02-15T22:51:39;100973.13;;;-2.20;100.00
26192;BME280;13935;55.672;37.764;2023-02-15T22:52:42;100972.34;;;-2.25;100.00
26192;BME280;13935;55.672;37.764;2023-02-15T22:53:45;100968.53;;;-2.29;100.00
26192;BME280;13935;55.672;37.764;2023-02-15T22:54:50;100963.41;;;-2.21;100.00
26192;BME280;13935;55.672;37.764;2023-02-15T22:55:53;100969.59;;;-2.20;100.00
26192;BME280;13935;55.672;37.764;2023-02-15T22:56:57;100971.50;;;-2.16;100.00
26192;BME280;13935;55.672;37.764;2023-02-15T22:58:01;100972.28;;;-2.15;100.00
26192;BME280;13935;55.672;37.764;2023-02-15T22:59:20;100972.03;;;-2.19;100.00
26192;BME280;13935;55.672;37.764;2023-02-15T23:00:28;100968.81;;;-2.21;100.00
26192;BME280;13935;55.672;37.764;2023-02-15T23:01:35;100972.09;;;-2.29;100.00
26192;BME280;13935;55.672;37.764;2023-02-15T23:02:40;100975.03;;;-2.20;100.00
26192;BME280;13935;55.672;37.764;2023-02-15T23:03:42;100974.47;;;-2.22;100.00
26192;BME280;13935;55.672;37.764;2023-02-15T23:04:48;100968.81;;;-2.26;100.00
26192;BME280;13935;55.672;37.764;2023-02-15T23:05:51;100978.28;;;-2.18;100.00
26192;BME280;13935;55.672;37.764;2023-02-15T23:06:55;100976.09;;;-2.21;100.00
26192;BME280;13935;55.672;37.764;2023-02-15T23:08:00;100981.00;;;-2.28;100.00
26192;BME280;13935;55.672;37.764;2023-02-15T23:09:03;100969.66;;;-2.30;100.00
26192;BME280;13935;55.672;37.764;2023-02-15T23:10:06;100975.34;;;-2.27;100.00
26192;BME280;13935;55.672;37.764;2023-02-15T23:11:23;100972.28;;;-2.15;100.00
26192;BME280;13935;55.672;37.764;2023-02-15T23:12:29;100977.44;;;-2.19;100.00
26192;BME280;13935;55.672;37.764;2023-02-15T23:13:55;100973.19;;;-2.35;100.00
26192;BME280;13935;55.672;37.764;2023-02-15T23:14:57;100976.13;;;-2.26;100.00
26192;BME280;13935;55.672;37.764;2023-02-15T23:16:04;100969.91;;;-2.32;100.00
26192;BME280;13935;55.672;37.764;2023-02-15T23:17:07;100968.31;;;-2.38;100.00
26192;BME280;13935;55.672;37.764;2023-02-15T23:19:21;100964.22;;;-2.25;100.00
26192;BME280;13935;55.672;37.764;2023-02-15T23:20:24;100963.38;;;-2.16;100.00
26192;BME280;13935;55.672;37.764;2023-02-15T23:21:33;100963.91;;;-2.14;100.00
26192;BME280;13935;55.672;37.764;2023-02-15T23:22:36;100964.47;;;-2.22;100.00
26192;BME280;13935;55.672;37.764;2023-02-15T23:23:41;100961.75;;;-2.17;100.00
26192;BME280;13935;55.672;37.764;2023-02-15T23:24:50;100957.94;;;-2.16;100.00
26192;BME280;13935;55.672;37.764;2023-02-15T23:25:53;100959.03;;;-2.17;100.00
26192;BME280;13935;55.672;37.764;2023-02-15T23:26:59;100954.22;;;-2.35;100.00
26192;BME280;13935;55.672;37.764;2023-02-15T23:28:26;100958.22;;;-2.22;100.00
26192;BME280;13935;55.672;37.764;2023-02-15T23:29:31;100956.06;;;-2.20;100.00
26192;BME280;13935;55.672;37.764;2023-02-15T23:30:35;100953.09;;;-2.24;100.00
26192;BME280;13935;55.672;37.764;2023-02-15T23:31:42;100959.00;;;-2.12;100.00
26192;BME280;13935;55.672;37.764;2023-02-15T23:32:48;100954.91;;;-2.00;100.00
26192;BME280;13935;55.672;37.764;2023-02-15T23:33:52;100957.38;;;-2.08;100.00
26192;BME280;13935;55.672;37.764;2023-02-15T23:34:57;100955.97;;;-1.96;100.00
26192;BME280;13935;55.672;37.764;2023-02-15T23:36:02;100954.66;;;-2.03;100.00
26192;BME280;13935;55.672;37.764;2023-02-15T23:37:08;100954.94;;;-2.10;100.00
26192;BME280;13935;55.672;37.764;2023-02-15T23:38:24;100953.06;;;-2.14;100.00
26192;BME280;13935;55.672;37.764;2023-02-15T23:39:27;100954.66;;;-2.03;100.00
26192;BME280;13935;55.672;37.764;2023-02-15T23:40:59;100947.34;;;-2.08;100.00
26192;BME280;13935;55.672;37.764;2023-02-15T23:42:26;100947.63;;;-2.09;100.00
26192;BME280;13935;55.672;37.764;2023-02-15T23:43:33;100946.53;;;-2.08;100.00
26192;BME280;13935;55.672;37.764;2023-02-15T23:44:37;100949.16;;;-1.93;100.00
26192;BME280;13935;55.672;37.764;2023-02-15T23:45:41;100946.75;;;-1.95;100.00
26192;BME280;13935;55.672;37.764;2023-02-15T23:46:47;100943.19;;;-1.85;100.00
26192;BME280;13935;55.672;37.764;2023-02-15T23:47:51;100944.31;;;-1.96;100.00
26192;BME280;13935;55.672;37.764;2023-02-15T23:49:18;100950.25;;;-1.94;100.00
26192;BME280;13935;55.672;37.764;2023-02-15T23:50:25;100946.94;;;-1.81;100.00
26192;BME280;13935;55.672;37.764;2023-02-15T23:51:30;100945.34;;;-1.87;100.00
26192;BME280;13935;55.672;37.764;2023-02-15T23:52:33;100948.88;;;-1.87;100.00
26192;BME280;13935;55.672;37.764;2023-02-15T23:53:37;100947.50;;;-1.84;100.00
26192;BME280;13935;55.672;37.764;2023-02-15T23:54:40;100945.06;;;-1.86;100.00
26192;BME280;13935;55.672;37.764;2023-02-15T23:55:45;100947.00;;;-1.91;100.00
26192;BME280;13935;55.672;37.764;2023-02-15T23:56:58;100952.09;;;-1.85;100.00
26192;BME280;13935;55.672;37.764;2023-02-15T23:58:04;100955.13;;;-1.91;100.00
26192;BME280;13935;55.672;37.764;2023-02-15T23:59:13;100953.50;;;-1.92;100.00
